Cushing, Minnesota
Current Conditions -  °F | °C
As of 12:58 AM on Wednesday 26 Nov 2014 (Local Time) from KLXL Reporting Station
Overcast Overcast  
Wind Chill: 21°   Ceiling: 4900
Heat Index: 21°   Visibility: 10mi
Dew Point: 14°   Wind: 3mph
Humidity: 74%   Direction: 60°ENE
Pressure: 30.02"   Gusts: NA
Location:  46.14°N, 94.58°W
Report Text: KLXL 260658Z AUTO 06003KT 10SM OVC049 M06/M10 A3002 RMK AO2
Loading
Personal Weather Stations






























Interactive Weather Map New forecast layout! Learn more

10-Day Weather Forecast

Advertisements
Track Severe Weather on mobile